createdAt,value
2022-09-03T00:01:06.059Z,99886.78
2022-09-03T00:03:43.500Z,99891.38
2022-09-03T00:06:18.239Z,99895.97
2022-09-03T00:08:51.161Z,99882.94
2022-09-03T00:11:37.937Z,99891.28
2022-09-03T00:14:11.640Z,99890.47
2022-09-03T00:16:49.601Z,99889.63
2022-09-03T00:19:26.720Z,99891.44
2022-09-03T00:22:24.621Z,99887.44
2022-09-03T00:24:52.501Z,99885.00
2022-09-03T00:27:25.882Z,99883.91
2022-09-03T00:29:56.920Z,99888.19
2022-09-03T00:32:34.516Z,99870.16
2022-09-03T00:35:04.837Z,99881.88
2022-09-03T00:37:33.660Z,99889.16
2022-09-03T00:40:14.772Z,99891.28
2022-09-03T00:42:57.021Z,99892.84
2022-09-03T00:45:56.486Z,99895.44
2022-09-03T00:48:30.848Z,99878.50
2022-09-03T00:51:10.192Z,99880.97
2022-09-03T00:53:54.310Z,99869.59
2022-09-03T00:56:32.550Z,99889.31
2022-09-03T00:59:09.836Z,99884.03
2022-09-03T01:01:45.996Z,99890.69
2022-09-03T01:04:25.924Z,99871.72
2022-09-03T01:07:10.373Z,99873.38
2022-09-03T01:09:48.942Z,99877.09
2022-09-03T01:12:29.561Z,99872.19
2022-09-03T01:15:01.891Z,99867.88
2022-09-03T01:17:39.213Z,99873.19
2022-09-03T01:20:27.048Z,99881.19
2022-09-03T01:23:12.067Z,99878.16
2022-09-03T01:26:24.744Z,99872.50
2022-09-03T01:29:00.352Z,99878.38
2022-09-03T01:31:36.160Z,99879.94
2022-09-03T01:34:27.653Z,99876.88
2022-09-03T01:37:05.898Z,99876.06
2022-09-03T01:39:49.513Z,99879.84
2022-09-03T01:42:30.731Z,99880.41
2022-09-03T01:45:21.432Z,99875.25
2022-09-03T01:47:54.490Z,99880.16
2022-09-03T01:50:37.377Z,99879.19
2022-09-03T01:53:20.039Z,99880.84
2022-09-03T01:56:23.300Z,99879.06
2022-09-03T01:59:07.136Z,99877.44
2022-09-03T02:01:50.173Z,99873.56
2022-09-03T02:04:20.458Z,99874.38
2022-09-03T02:06:48.800Z,99867.34
2022-09-03T02:09:16.741Z,99875.78
2022-09-03T02:11:46.740Z,99873.56
2022-09-03T02:14:14.050Z,99864.78
2022-09-03T02:16:40.441Z,99876.16
2022-09-03T02:19:14.576Z,99875.59
2022-09-03T02:21:49.842Z,99867.97
2022-09-03T02:24:16.312Z,99860.84
2022-09-03T02:26:42.912Z,99870.44
2022-09-03T02:29:09.805Z,99871.47
2022-09-03T02:31:36.420Z,99876.63
2022-09-03T02:34:03.205Z,99867.97
2022-09-03T02:36:34.457Z,99870.09
2022-09-03T02:39:01.049Z,99865.53
2022-09-03T02:41:27.565Z,99869.06
2022-09-03T02:44:01.479Z,99865.19
2022-09-03T02:46:38.392Z,99873.78
2022-09-03T02:49:05.571Z,99844.06
2022-09-03T02:51:35.248Z,99868.88
2022-09-03T02:54:01.766Z,99860.69
2022-09-03T02:56:28.277Z,99869.81
2022-09-03T02:58:54.716Z,99868.66
2022-09-03T03:01:23.832Z,99866.44
2022-09-03T03:03:50.829Z,99864.09
2022-09-03T03:06:20.731Z,99867.53
2022-09-03T03:08:49.726Z,99873.84
2022-09-03T03:11:18.287Z,99864.63
2022-09-03T03:13:46.478Z,99859.47
2022-09-03T03:16:14.442Z,99868.72
2022-09-03T03:18:41.330Z,99860.84
2022-09-03T03:21:12.987Z,99863.44
2022-09-03T03:23:39.536Z,99859.69
2022-09-03T03:26:08.935Z,99853.22
2022-09-03T03:28:36.325Z,99852.75
2022-09-03T03:31:22.442Z,99830.16
2022-09-03T03:33:53.270Z,99848.22
2022-09-03T03:36:20.177Z,99821.59
2022-09-03T03:38:46.682Z,99841.63
2022-09-03T03:41:19.041Z,99858.16
2022-09-03T03:43:45.711Z,99826.53
2022-09-03T03:46:13.078Z,99850.63
2022-09-03T03:48:39.865Z,99839.84
2022-09-03T03:51:08.987Z,99842.66
2022-09-03T03:53:37.782Z,99830.50
2022-09-03T03:56:07.201Z,99831.19
2022-09-03T03:58:34.474Z,99843.28
2022-09-03T04:01:15.187Z,99839.75
2022-09-03T04:03:42.707Z,99843.75
2022-09-03T04:06:10.425Z,99844.09
2022-09-03T04:08:41.813Z,99849.34
2022-09-03T04:11:10.793Z,99844.44
2022-09-03T04:13:42.182Z,99843.84
2022-09-03T04:16:11.812Z,99846.31
2022-09-03T04:18:39.505Z,99845.28
2022-09-03T04:21:08.313Z,99840.13
2022-09-03T04:23:41.182Z,99838.47
2022-09-03T04:26:09.764Z,99838.69
2022-09-03T04:28:36.490Z,99843.63
2022-09-03T04:31:07.882Z,99836.09
2022-09-03T04:33:38.026Z,99842.34
2022-09-03T04:36:05.685Z,99838.81
2022-09-03T04:38:34.034Z,99828.28
2022-09-03T04:41:00.877Z,99835.41
2022-09-03T04:43:28.610Z,99840.81
2022-09-03T04:46:03.483Z,99843.50
2022-09-03T04:48:31.401Z,99836.00
2022-09-03T04:51:06.377Z,99843.84
2022-09-03T04:53:38.100Z,99846.88
2022-09-03T04:56:15.900Z,99844.53
2022-09-03T04:58:44.172Z,99847.16
2022-09-03T05:01:12.429Z,99855.00
2022-09-03T05:03:39.306Z,99855.56
2022-09-03T05:06:06.333Z,99837.53
2022-09-03T05:08:37.180Z,99856.06
2022-09-03T05:11:07.674Z,99851.84
2022-09-03T05:13:36.929Z,99851.59
2022-09-03T05:16:06.528Z,99840.00
2022-09-03T05:18:35.735Z,99835.31
2022-09-03T05:21:04.685Z,99845.25
2022-09-03T05:23:36.964Z,99841.03
2022-09-03T05:26:08.991Z,99843.25
2022-09-03T05:28:39.373Z,99837.38
2022-09-03T05:31:17.511Z,99843.94
2022-09-03T05:33:49.621Z,99822.41
2022-09-03T05:36:22.203Z,99850.59
2022-09-03T05:38:49.457Z,99851.16
2022-09-03T05:41:17.888Z,99848.47
2022-09-03T05:43:47.769Z,99843.31
2022-09-03T05:46:18.248Z,99850.34
2022-09-03T05:48:45.023Z,99847.66
2022-09-03T05:51:16.474Z,99852.81
2022-09-03T05:53:45.620Z,99853.41
2022-09-03T05:56:17.889Z,99847.44
2022-09-03T05:58:49.472Z,99852.25
2022-09-03T06:01:21.808Z,99851.06
2022-09-03T06:04:14.985Z,99862.19
2022-09-03T06:06:44.065Z,99859.25
2022-09-03T06:09:13.734Z,99857.50
2022-09-03T06:11:40.764Z,99855.03
2022-09-03T06:14:10.321Z,99843.31
2022-09-03T06:16:40.596Z,99855.72
2022-09-03T06:19:09.584Z,99857.72
2022-09-03T06:21:37.404Z,99850.09
2022-09-03T06:24:04.052Z,99858.72
2022-09-03T06:26:30.425Z,99861.38
2022-09-03T06:28:57.974Z,99866.72
2022-09-03T06:31:24.968Z,99865.03
2022-09-03T06:33:52.962Z,99868.19
2022-09-03T06:36:20.294Z,99864.81
2022-09-03T06:38:47.378Z,99867.34
2022-09-03T06:41:24.923Z,99881.56
2022-09-03T06:44:12.280Z,99873.59
2022-09-03T06:46:42.247Z,99871.88
2022-09-03T06:49:09.591Z,99878.84
2022-09-03T06:51:37.750Z,99869.81
2022-09-03T06:54:09.116Z,99875.94
2022-09-03T06:56:40.249Z,99864.78
2022-09-03T06:59:14.743Z,99886.06
2022-09-03T07:01:45.073Z,99859.09
2022-09-03T07:04:15.961Z,99865.59
2022-09-03T07:06:42.794Z,99869.53
2022-09-03T07:09:11.091Z,99846.47
2022-09-03T07:11:39.109Z,99904.22
2022-09-03T07:14:05.768Z,99871.53
2022-09-03T07:16:37.053Z,99873.31
2022-09-03T07:19:05.197Z,99866.88
2022-09-03T07:21:44.075Z,99871.25
2022-09-03T07:24:14.734Z,99886.25
2022-09-03T07:26:46.989Z,99887.38
2022-09-03T07:29:14.701Z,99886.25
2022-09-03T07:31:43.067Z,99889.97
2022-09-03T07:34:12.521Z,99893.19
2022-09-03T07:36:42.658Z,99868.06
2022-09-03T07:39:11.344Z,99886.31
2022-09-03T07:41:38.301Z,99855.19
2022-09-03T07:44:08.168Z,99868.59
2022-09-03T07:46:37.892Z,99888.94
2022-09-03T07:49:06.110Z,99897.16
2022-09-03T07:51:35.646Z,99889.31
2022-09-03T07:54:06.825Z,99889.63
2022-09-03T07:56:35.705Z,99898.97
2022-09-03T07:59:03.222Z,99901.00
2022-09-03T08:01:32.630Z,99889.16
2022-09-03T08:03:59.906Z,99898.72
2022-09-03T08:06:28.145Z,99900.06
2022-09-03T08:09:05.031Z,99897.38
2022-09-03T08:11:35.992Z,99912.56
2022-09-03T08:14:06.223Z,99909.09
2022-09-03T08:16:36.288Z,99903.13
2022-09-03T08:19:03.364Z,99914.91
2022-09-03T08:21:29.737Z,99909.38
2022-09-03T08:24:02.779Z,99907.56
2022-09-03T08:26:35.197Z,99919.56
2022-09-03T08:29:05.603Z,99919.63
2022-09-03T08:31:33.829Z,99924.31
2022-09-03T08:34:06.482Z,99921.06
2022-09-03T08:36:36.197Z,99903.16
2022-09-03T08:39:09.311Z,99920.06
2022-09-03T08:41:50.853Z,99931.47
2022-09-03T08:44:49.507Z,99923.09
2022-09-03T08:47:40.787Z,99922.84
2022-09-03T08:50:21.971Z,99923.38
2022-09-03T08:53:02.176Z,99909.50
2022-09-03T08:55:34.080Z,99899.69
2022-09-03T08:58:10.334Z,99929.91
2022-09-03T09:00:39.736Z,99928.78
2022-09-03T09:03:33.508Z,99942.09
2022-09-03T09:06:28.786Z,99932.88
2022-09-03T09:09:23.426Z,99938.28
2022-09-03T09:12:20.779Z,99934.97
2022-09-03T09:15:13.601Z,99933.94
2022-09-03T09:18:07.678Z,99932.63
2022-09-03T09:20:48.364Z,99941.66
2022-09-03T09:23:37.771Z,99937.31
2022-09-03T09:26:12.349Z,99935.94
2022-09-03T09:28:39.151Z,99935.13
2022-09-03T09:31:15.245Z,99929.19
2022-09-03T09:33:42.650Z,99935.16
2022-09-03T09:36:12.176Z,99933.50
2022-09-03T09:38:40.179Z,99934.88
2022-09-03T09:41:21.159Z,99925.91
2022-09-03T09:43:48.123Z,99938.66
2022-09-03T09:46:21.627Z,99937.31
2022-09-03T09:48:51.861Z,99933.50
2022-09-03T09:51:26.717Z,99941.13
2022-09-03T09:54:03.965Z,99900.59
2022-09-03T09:56:30.981Z,99934.34
2022-09-03T09:59:06.014Z,99946.56
2022-09-03T10:01:33.048Z,99938.16
2022-09-03T10:04:07.838Z,99935.44
2022-09-03T10:06:53.689Z,99940.59
2022-09-03T10:09:26.716Z,99936.81
2022-09-03T10:12:10.942Z,99936.81
2022-09-03T10:14:47.591Z,99960.72
2022-09-03T10:17:43.445Z,99939.75
2022-09-03T10:20:28.113Z,99935.13
2022-09-03T10:22:57.639Z,99939.19
2022-09-03T10:25:29.149Z,99927.19
2022-09-03T10:30:26.190Z,99937.28
2022-09-03T10:33:09.733Z,99940.81
2022-09-03T10:35:46.358Z,99941.69
2022-09-03T10:38:30.885Z,99941.16
2022-09-03T10:41:12.516Z,99942.75
2022-09-03T10:43:59.954Z,99950.31
2022-09-03T10:46:41.453Z,99941.78
2022-09-03T10:49:08.924Z,99944.44
2022-09-03T10:51:40.462Z,99943.03
2022-09-03T10:54:23.008Z,99945.44
2022-09-03T10:57:22.181Z,99937.78
2022-09-03T10:59:58.507Z,99932.28
2022-09-03T11:03:10.340Z,99935.41
2022-09-03T11:05:58.664Z,99930.19
2022-09-03T11:08:30.765Z,99931.56
2022-09-03T11:11:19.934Z,99935.03
2022-09-03T11:14:03.510Z,99942.06
2022-09-03T11:16:38.741Z,99928.22
2022-09-03T11:19:11.306Z,99922.66
2022-09-03T11:21:41.789Z,99937.63
2022-09-03T11:24:17.045Z,99930.25
2022-09-03T11:26:54.051Z,99910.78
2022-09-03T11:29:43.451Z,99927.09
2022-09-03T11:32:20.717Z,99927.94
2022-09-03T11:34:54.486Z,99925.22
2022-09-03T11:37:27.400Z,99920.44
2022-09-03T11:39:57.934Z,99920.38
2022-09-03T11:42:39.747Z,99910.88
2022-09-03T11:45:36.454Z,99905.34
2022-09-03T11:48:17.155Z,99898.75
2022-09-03T11:50:53.619Z,99908.03
2022-09-03T11:53:19.962Z,99899.63
2022-09-03T11:55:57.222Z,99906.47
2022-09-03T11:58:32.785Z,99896.34
2022-09-03T12:01:02.114Z,99903.91
2022-09-03T12:03:52.814Z,99899.69
2022-09-03T12:06:43.532Z,99897.31
2022-09-03T12:09:44.834Z,99904.88
2022-09-03T12:12:34.349Z,99903.75
2022-09-03T12:15:11.437Z,99903.28
2022-09-03T12:18:21.564Z,99893.53
2022-09-03T12:20:55.493Z,99897.72
2022-09-03T12:23:35.204Z,99894.53
2022-09-03T12:26:08.076Z,99897.53
2022-09-03T12:28:40.671Z,99883.75
2022-09-03T12:31:21.458Z,99893.31
2022-09-03T12:33:59.050Z,99892.78
2022-09-03T12:36:35.797Z,99891.34
2022-09-03T12:39:13.002Z,99895.09
2022-09-03T12:41:59.173Z,99881.84
2022-09-03T12:44:37.999Z,99882.16
2022-09-03T12:50:07.231Z,99885.56
2022-09-03T12:52:43.757Z,99863.84
2022-09-03T12:55:28.952Z,99876.47
2022-09-03T12:58:28.688Z,99885.38
2022-09-03T13:01:10.705Z,99889.91
2022-09-03T13:03:54.745Z,99881.13
2022-09-03T13:06:28.380Z,99883.44
2022-09-03T13:08:59.148Z,99866.94
2022-09-03T13:11:27.269Z,99873.53
2022-09-03T13:14:05.333Z,99866.41
2022-09-03T13:16:34.684Z,99869.00
2022-09-03T13:19:13.441Z,99864.84
2022-09-03T13:22:04.632Z,99865.50
2022-09-03T13:24:37.081Z,99857.84
2022-09-03T13:27:25.256Z,99856.06
2022-09-03T13:30:05.705Z,99853.91
2022-09-03T13:32:40.551Z,99856.53
2022-09-03T13:35:23.517Z,99857.84
2022-09-03T13:37:58.881Z,99853.50
2022-09-03T13:40:31.332Z,99851.75
2022-09-03T13:43:16.940Z,99850.41
2022-09-03T13:45:59.978Z,99854.09
2022-09-03T13:48:52.281Z,99852.00
2022-09-03T13:51:29.696Z,99842.28
2022-09-03T13:54:04.981Z,99846.16
2022-09-03T13:56:58.270Z,99845.50
2022-09-03T13:59:47.607Z,99853.59
2022-09-03T14:02:33.042Z,99842.94
2022-09-03T14:05:13.037Z,99856.69
2022-09-03T14:07:55.326Z,99849.75
2022-09-03T14:10:31.309Z,99859.44
2022-09-03T14:13:28.706Z,99854.41
2022-09-03T14:16:31.104Z,99853.56
2022-09-03T14:18:59.986Z,99850.41
2022-09-03T14:21:35.894Z,99840.91
2022-09-03T14:24:21.313Z,99854.84
2022-09-03T14:26:54.577Z,99856.97
2022-09-03T14:29:28.106Z,99853.47
2022-09-03T14:32:09.677Z,99852.22
2022-09-03T14:35:03.352Z,99862.41
2022-09-03T14:38:02.119Z,99859.31
2022-09-03T14:40:46.393Z,99851.44
2022-09-03T14:43:34.511Z,99861.84
2022-09-03T14:46:17.509Z,99866.63
2022-09-03T14:48:50.159Z,99871.47
2022-09-03T14:51:40.075Z,99844.69
2022-09-03T14:54:36.912Z,99847.44
2022-09-03T14:57:37.500Z,99864.16
2022-09-03T15:00:18.421Z,99866.59
2022-09-03T15:03:11.226Z,99863.16
2022-09-03T15:06:01.708Z,99845.69
2022-09-03T15:08:47.613Z,99862.66
2022-09-03T15:11:22.765Z,99855.22
2022-09-03T15:13:59.677Z,99856.72
2022-09-03T15:16:36.248Z,99812.41
2022-09-03T15:19:05.851Z,99855.06
2022-09-03T15:22:09.891Z,99853.13
2022-09-03T15:25:04.631Z,99854.72
2022-09-03T15:28:08.653Z,99857.41
2022-09-03T15:30:46.036Z,99854.84
2022-09-03T15:33:37.557Z,99854.22
2022-09-03T15:36:15.015Z,99860.03
2022-09-03T15:38:50.501Z,99853.97
2022-09-03T15:41:40.298Z,99861.75
2022-09-03T15:44:18.929Z,99868.50
2022-09-03T15:46:56.557Z,99873.81
2022-09-03T15:49:55.734Z,99871.38
2022-09-03T15:53:09.483Z,99866.31
2022-09-03T15:55:39.578Z,99870.97
2022-09-03T15:58:38.008Z,99866.50
2022-09-03T16:01:19.286Z,99864.25
2022-09-03T16:04:09.620Z,99870.22
2022-09-03T16:06:44.230Z,99868.31
2022-09-03T16:09:44.537Z,99856.34
2022-09-03T16:12:29.298Z,99864.69
2022-09-03T16:15:15.488Z,99866.03
2022-09-03T16:18:03.842Z,99865.22
2022-09-03T16:20:55.164Z,99863.59
2022-09-03T16:23:29.987Z,99870.19
2022-09-03T16:26:05.386Z,99878.91
2022-09-03T16:28:47.800Z,99878.00
2022-09-03T16:31:34.747Z,99872.03
2022-09-03T16:34:17.999Z,99878.41
2022-09-03T16:36:45.480Z,99871.63
2022-09-03T16:39:33.202Z,99872.03
2022-09-03T16:42:18.125Z,99872.56
2022-09-03T16:45:11.793Z,99880.00
2022-09-03T16:48:17.685Z,99879.13
2022-09-03T16:51:18.830Z,99881.56
2022-09-03T16:54:06.002Z,99885.81
2022-09-03T16:56:50.951Z,99875.72
2022-09-03T16:59:50.318Z,99885.63
2022-09-03T17:02:42.593Z,99896.94
2022-09-03T17:05:46.429Z,99902.47
2022-09-03T17:08:23.002Z,99907.63
2022-09-03T17:10:55.987Z,99917.72
2022-09-03T17:13:51.816Z,99911.94
2022-09-03T17:16:29.047Z,99918.47
2022-09-03T17:19:04.167Z,99920.81
2022-09-03T17:21:48.037Z,99924.78
2022-09-03T17:24:53.677Z,99925.47
2022-09-03T17:27:57.736Z,99931.41
2022-09-03T17:30:56.340Z,99937.75
2022-09-03T17:33:50.485Z,99937.84
2022-09-03T17:36:21.914Z,99936.03
2022-09-03T17:39:07.164Z,99957.34
2022-09-03T17:41:53.263Z,99947.03
2022-09-03T17:44:49.165Z,99950.59
2022-09-03T17:47:37.408Z,99956.63
2022-09-03T17:50:26.094Z,99954.47
2022-09-03T17:53:02.576Z,99955.84
2022-09-03T17:55:38.228Z,99963.75
2022-09-03T17:58:21.000Z,99971.03
2022-09-03T18:01:15.660Z,99967.75
2022-09-03T18:04:12.588Z,99977.25
2022-09-03T18:06:41.995Z,99982.94
2022-09-03T18:09:23.691Z,99982.09
2022-09-03T18:11:58.078Z,99974.97
2022-09-03T18:14:30.650Z,99981.22
2022-09-03T18:17:06.587Z,99964.81
2022-09-03T18:20:04.459Z,99989.28
2022-09-03T18:23:19.367Z,99983.50
2022-09-03T18:26:11.987Z,100003.84
2022-09-03T18:29:06.797Z,99988.50
2022-09-03T18:31:51.614Z,100008.88
2022-09-03T18:34:41.065Z,100014.81
2022-09-03T18:37:26.817Z,100010.44
2022-09-03T18:40:11.546Z,100014.72
2022-09-03T18:43:21.757Z,100009.75
2022-09-03T18:49:26.929Z,100008.56
2022-09-03T18:52:36.861Z,100003.84
2022-09-03T18:55:58.313Z,100015.13
2022-09-03T18:58:52.704Z,99988.91
2022-09-03T19:01:54.014Z,100013.84
2022-09-03T19:05:16.373Z,100013.25
2022-09-03T19:08:25.733Z,100017.03
2022-09-03T19:11:20.213Z,100022.47
2022-09-03T19:14:05.045Z,100028.69
2022-09-03T19:17:20.274Z,100029.25
2022-09-03T19:20:27.249Z,100029.75
2022-09-03T19:23:12.025Z,100038.44
2022-09-03T19:25:56.949Z,100037.28
2022-09-03T19:28:44.718Z,100046.75
2022-09-03T19:31:47.863Z,100049.16
2022-09-03T19:34:35.759Z,100050.41
2022-09-03T19:37:37.298Z,100052.72
2022-09-03T19:40:43.877Z,100053.22
2022-09-03T19:43:51.971Z,100055.06
2022-09-03T19:46:55.334Z,100049.81
2022-09-03T19:49:53.385Z,100048.38
2022-09-03T19:52:38.156Z,100063.47
2022-09-03T19:55:23.548Z,100048.09
2022-09-03T19:58:41.557Z,100063.91
2022-09-03T20:01:22.129Z,100071.69
2022-09-03T20:04:08.061Z,100084.41
2022-09-03T20:06:54.849Z,100081.13
2022-09-03T20:09:46.358Z,100084.09
2022-09-03T20:12:17.502Z,100087.63
2022-09-03T20:14:43.849Z,100086.25
2022-09-03T20:17:24.746Z,100085.69
2022-09-03T20:20:09.660Z,100090.50
2022-09-03T20:22:44.926Z,100083.63
2022-09-03T20:25:44.851Z,100082.72
2022-09-03T20:28:48.627Z,100089.94
2022-09-03T20:31:29.850Z,100109.63
2022-09-03T20:34:04.653Z,100112.59
2022-09-03T20:36:41.427Z,100089.28
2022-09-03T20:39:29.741Z,100102.81
2022-09-03T20:42:23.305Z,100098.16
2022-09-03T20:44:58.470Z,100102.97
2022-09-03T20:47:59.936Z,100104.06
2022-09-03T20:50:43.638Z,100102.09
2022-09-03T20:53:35.232Z,100103.88
2022-09-03T20:56:26.233Z,100105.44
2022-09-03T20:59:21.046Z,100099.34
2022-09-03T21:02:12.256Z,100110.19
2022-09-03T21:04:48.269Z,100112.06
2022-09-03T21:07:20.817Z,100108.75
2022-09-03T21:09:58.730Z,100109.25
2022-09-03T21:13:11.112Z,100111.13
2022-09-03T21:15:56.674Z,100117.84
2022-09-03T21:18:38.393Z,100106.69
2022-09-03T21:21:36.291Z,100112.34
2022-09-03T21:24:12.280Z,100108.25
2022-09-03T21:26:45.948Z,100111.19
2022-09-03T21:29:26.304Z,100115.78
2022-09-03T21:32:23.487Z,100110.63
2022-09-03T21:35:03.713Z,100110.06
2022-09-03T21:37:34.452Z,100102.41
2022-09-03T21:40:00.967Z,100107.25
2022-09-03T21:42:44.897Z,100107.72
2022-09-03T21:45:14.864Z,100101.25
2022-09-03T21:47:47.578Z,100105.03
2022-09-03T21:50:19.480Z,100113.13
2022-09-03T21:52:52.807Z,100112.28
2022-09-03T21:55:54.377Z,100108.78
2022-09-03T21:59:08.724Z,100115.84
2022-09-03T22:01:58.383Z,100126.66
2022-09-03T22:04:26.541Z,100101.47
2022-09-03T22:07:19.625Z,100114.44
2022-09-03T22:09:52.430Z,100099.91
2022-09-03T22:12:27.889Z,100095.72
2022-09-03T22:14:55.624Z,100114.56
2022-09-03T22:17:55.815Z,100119.16
2022-09-03T22:20:24.073Z,100124.56
2022-09-03T22:22:57.558Z,100115.88
2022-09-03T22:25:30.081Z,100116.94
2022-09-03T22:28:07.580Z,100127.75
2022-09-03T22:30:53.763Z,100116.84
2022-09-03T22:33:33.030Z,100117.69
2022-09-03T22:36:05.254Z,100120.63
2022-09-03T22:38:43.857Z,100125.44
2022-09-03T22:41:38.206Z,100127.31
2022-09-03T22:44:33.128Z,100134.03
2022-09-03T22:47:18.548Z,100136.16
2022-09-03T22:49:58.522Z,100137.44
2022-09-03T22:52:49.321Z,100134.16
2022-09-03T22:55:26.041Z,100146.50
2022-09-03T22:58:23.022Z,100143.22
2022-09-03T23:01:02.645Z,100151.81
2022-09-03T23:03:38.946Z,100148.50
2022-09-03T23:06:32.611Z,100145.13
2022-09-03T23:09:09.913Z,100154.41
2022-09-03T23:11:43.641Z,100154.88
2022-09-03T23:14:21.081Z,100156.75
2022-09-03T23:17:06.226Z,100155.34
2022-09-03T23:19:43.740Z,100158.03
2022-09-03T23:22:19.535Z,100155.81
2022-09-03T23:25:04.580Z,100157.94
2022-09-03T23:27:37.721Z,100150.66
2022-09-03T23:30:05.426Z,100159.72
2022-09-03T23:32:33.238Z,100158.28
2022-09-03T23:35:03.812Z,100163.94
2022-09-03T23:37:47.951Z,100143.38
2022-09-03T23:40:22.190Z,100168.41
2022-09-03T23:43:19.597Z,100167.59
2022-09-03T23:46:07.725Z,100176.34
2022-09-03T23:48:42.928Z,100169.78
2022-09-03T23:51:12.196Z,100170.50
2022-09-03T23:53:53.779Z,100171.78
2022-09-03T23:56:44.878Z,100169.78
2022-09-03T23:59:32.352Z,100175.66
